Time;durP1;ratioP1;P1;durP2;ratioP2;P2;SDS_P1;SDS_P2;PMS_P1;PMS_P2;Temp;Humidity;BMP_temperature;BMP_pressure;BME280_temperature;BME280_humidity;BME280_pressure;Samples;Min_cycle;Max_cycle;Signal;HPM_P1;HPM_P2
2022/07/28 00:01:04;;;;;;;0.40;0.20;;;20.50;94.40;;;;;;4978400;28;20383;-67
2022/07/28 00:39:24;;;;;;;0.40;0.30;;;19.80;98.90;;;;;;5008175;28;20900;-67
2022/07/28 00:41:50;;;;;;;0.40;0.28;;;19.90;98.80;;;;;;5008580;28;20422;-68
2022/07/28 00:44:16;;;;;;;0.40;0.30;;;19.70;98.40;;;;;;4969929;28;20402;-68
2022/07/28 00:46:41;;;;;;;0.40;0.30;;;19.70;99.90;;;;;;4960934;28;20449;-67
2022/07/28 00:49:08;;;;;;;0.40;0.30;;;19.70;98.40;;;;;;4981927;28;20472;-67
2022/07/28 00:51:34;;;;;;;0.40;0.25;;;19.60;99.90;;;;;;4968404;28;20475;-67
2022/07/28 00:54:01;;;;;;;0.40;0.20;;;19.60;99.60;;;;;;4976658;28;20963;-68
2022/07/28 00:56:26;;;;;;;0.40;0.30;;;19.60;98.70;;;;;;4977261;28;20397;-67
2022/07/28 00:58:52;;;;;;;1.90;1.60;;;19.70;99.80;;;;;;4977812;28;20467;-67
2022/07/28 01:01:19;;;;;;;0.60;0.60;;;19.60;99.90;;;;;;4992976;28;20404;-67
2022/07/28 01:03:52;;;;;;;0.40;0.20;;;19.50;99.90;;;;;;4977480;28;20483;-67
2022/07/28 01:06:30;;;;;;;0.40;0.30;;;19.50;99.90;;;;;;5010625;28;20825;-67
2022/07/28 01:09:24;;;;;;;0.60;0.60;;;19.30;99.90;;;;;;5009436;28;20976;-67
2022/07/28 01:11:57;;;;;;;0.60;0.50;;;19.20;99.90;;;;;;5009537;28;20801;-67
2022/07/28 01:14:34;;;;;;;0.40;0.30;;;19.20;99.90;;;;;;5009290;28;20395;-67
2022/07/28 01:17:21;;;;;;;0.40;0.20;;;19.20;99.90;;;;;;5009655;28;20404;-67
2022/07/28 01:20:08;;;;;;;0.40;0.30;;;19.00;99.90;;;;;;5009774;28;20393;-67
2022/07/28 01:22:58;;;;;;;0.40;0.20;;;18.90;99.90;;;;;;5008648;28;20447;-67
2022/07/28 01:25:36;;;;;;;0.40;0.20;;;18.90;99.90;;;;;;5009270;28;20476;-67
2022/07/28 01:28:19;;;;;;;0.40;0.30;;;18.80;99.90;;;;;;5009338;28;20507;-67
2022/07/28 01:30:48;;;;;;;0.40;0.30;;;18.70;99.90;;;;;;5009345;28;20699;-67
2022/07/28 01:33:21;;;;;;;0.40;0.30;;;18.80;99.90;;;;;;5009488;28;20425;-67
2022/07/28 01:36:01;;;;;;;0.40;0.30;;;18.80;99.90;;;;;;5009407;28;20466;-67
2022/07/28 01:38:31;;;;;;;0.40;0.30;;;18.70;99.90;;;;;;5010775;28;20401;-67
2022/07/28 01:40:58;;;;;;;0.40;0.32;;;18.70;99.90;;;;;;5012744;28;20405;-67
2022/07/28 01:43:27;;;;;;;0.40;0.30;;;18.70;99.90;;;;;;4980317;28;20393;-67
2022/07/28 01:45:55;;;;;;;0.40;0.30;;;18.50;99.90;;;;;;5013097;28;20389;-67
2022/07/28 01:48:24;;;;;;;0.40;0.30;;;18.40;99.90;;;;;;4980189;28;20405;-67
2022/07/28 01:50:53;;;;;;;0.40;0.20;;;18.30;99.90;;;;;;4996248;28;20408;-67
2022/07/28 01:53:20;;;;;;;0.40;0.20;;;18.10;99.90;;;;;;4992926;28;20485;-67
2022/07/28 01:55:47;;;;;;;0.50;0.40;;;18.00;99.90;;;;;;4976625;28;20395;-67
2022/07/28 01:58:15;;;;;;;0.40;0.20;;;17.90;99.90;;;;;;4977190;28;20456;-67
2022/07/28 02:00:43;;;;;;;0.40;0.30;;;17.90;99.90;;;;;;4977096;28;20485;-67
2022/07/28 02:03:11;;;;;;;0.40;0.20;;;17.90;99.90;;;;;;4993600;28;20466;-67
2022/07/28 02:05:39;;;;;;;0.40;0.30;;;17.80;99.90;;;;;;5012353;28;20404;-67
2022/07/28 02:08:06;;;;;;;0.50;0.40;;;17.80;99.90;;;;;;5012345;28;20466;-67
2022/07/28 02:10:34;;;;;;;0.40;0.30;;;17.90;99.90;;;;;;4995423;28;20490;-67
2022/07/28 02:13:01;;;;;;;0.40;0.30;;;17.80;99.90;;;;;;4995983;28;20397;-67
2022/07/28 02:15:30;;;;;;;0.40;0.30;;;17.70;99.90;;;;;;5011502;28;20881;-67
2022/07/28 02:17:59;;;;;;;0.40;0.20;;;17.70;99.90;;;;;;5011525;28;20506;-67
2022/07/28 02:20:26;;;;;;;0.40;0.20;;;17.50;99.90;;;;;;5005479;28;20406;-67
2022/07/28 02:22:52;;;;;;;0.40;0.30;;;17.40;99.90;;;;;;4985703;28;20396;-67
2022/07/28 02:25:20;;;;;;;0.40;0.30;;;17.40;99.90;;;;;;5011914;28;20444;-67
2022/07/28 02:28:00;;;;;;;0.40;0.30;;;17.40;99.90;;;;;;4995532;28;20416;-67
2022/07/28 02:30:36;;;;;;;0.40;0.20;;;17.50;99.90;;;;;;4992524;28;20402;-67
2022/07/28 02:33:10;;;;;;;0.53;0.50;;;17.50;99.90;;;;;;4992156;28;20394;-68
2022/07/28 02:35:47;;;;;;;0.40;0.20;;;17.40;99.90;;;;;;4991882;28;20393;-67
2022/07/28 02:38:24;;;;;;;0.60;0.60;;;17.30;99.90;;;;;;4992378;28;20394;-67
2022/07/28 02:40:54;;;;;;;0.40;0.20;;;17.20;99.90;;;;;;4992102;28;20497;-67
2022/07/28 02:43:27;;;;;;;0.75;0.75;;;17.30;99.90;;;;;;4991977;28;20383;-67
2022/07/28 02:45:59;;;;;;;0.47;0.40;;;17.10;99.90;;;;;;4991773;28;20402;-67
2022/07/28 02:48:29;;;;;;;0.40;0.30;;;17.20;99.90;;;;;;4991650;28;20539;-67
2022/07/28 02:50:57;;;;;;;0.40;0.20;;;17.10;99.90;;;;;;5006195;28;20384;-67
2022/07/28 02:53:24;;;;;;;0.40;0.30;;;16.90;99.90;;;;;;4995161;28;20862;-67
2022/07/28 02:55:51;;;;;;;0.40;0.30;;;17.00;99.90;;;;;;4979408;28;20459;-67
2022/07/28 02:58:20;;;;;;;0.70;0.70;;;16.90;99.90;;;;;;4995295;28;20475;-67
2022/07/28 03:00:48;;;;;;;0.40;0.30;;;17.00;99.90;;;;;;5010893;28;20745;-67
2022/07/28 03:03:16;;;;;;;0.40;0.30;;;16.90;99.90;;;;;;5011177;28;20396;-67
2022/07/28 03:05:42;;;;;;;0.40;0.20;;;16.90;99.90;;;;;;5010851;28;20558;-67
2022/07/28 03:08:09;;;;;;;0.40;0.28;;;16.80;99.90;;;;;;4994796;28;20780;-67
2022/07/28 03:10:36;;;;;;;0.40;0.22;;;16.70;99.90;;;;;;4977485;28;20471;-67
2022/07/28 03:13:05;;;;;;;0.40;0.20;;;16.70;99.90;;;;;;4975345;28;20399;-65
2022/07/28 03:15:32;;;;;;;0.40;0.20;;;17.00;99.90;;;;;;4978130;28;20436;-65
2022/07/28 03:18:04;;;;;;;0.40;0.30;;;17.00;99.90;;;;;;4978859;28;20436;-66
2022/07/28 03:20:30;;;;;;;0.40;0.30;;;16.80;99.90;;;;;;5010302;28;20393;-68
2022/07/28 03:23:00;;;;;;;0.40;0.25;;;16.90;99.90;;;;;;4978732;28;20404;-65
2022/07/28 03:25:45;;;;;;;0.40;0.20;;;17.00;99.90;;;;;;4991125;28;20495;-68
2022/07/28 03:28:16;;;;;;;0.40;0.20;;;16.90;99.90;;;;;;5010438;28;20578;-68
2022/07/28 03:30:47;;;;;;;0.40;0.20;;;16.80;99.90;;;;;;5010316;28;20500;-68
2022/07/28 03:33:13;;;;;;;0.50;0.50;;;16.70;99.90;;;;;;5010603;28;20431;-67
2022/07/28 03:35:45;;;;;;;0.40;0.30;;;16.70;99.90;;;;;;4975210;28;20820;-67
2022/07/28 03:38:13;;;;;;;0.40;0.20;;;16.60;99.90;;;;;;4995089;28;20480;-67
2022/07/28 03:40:40;;;;;;;0.40;0.20;;;16.60;99.90;;;;;;4994082;28;20931;-68
2022/07/28 03:43:09;;;;;;;0.40;0.28;;;16.60;99.90;;;;;;5011625;28;20402;-68
2022/07/28 03:45:36;;;;;;;0.60;0.60;;;16.60;99.90;;;;;;5010658;28;20880;-67
2022/07/28 03:48:03;;;;;;;0.50;0.50;;;16.70;99.90;;;;;;4994943;28;20412;-68
2022/07/28 03:50:31;;;;;;;0.40;0.20;;;16.70;99.90;;;;;;4994431;28;20401;-68
2022/07/28 03:52:58;;;;;;;0.40;0.20;;;16.80;99.90;;;;;;5011155;28;20880;-67
2022/07/28 03:55:25;;;;;;;0.40;0.20;;;16.70;99.90;;;;;;5010829;28;20393;-67
2022/07/28 03:57:51;;;;;;;0.40;0.30;;;16.70;99.90;;;;;;5011825;28;20857;-66
2022/07/28 04:00:20;;;;;;;0.40;0.20;;;16.60;99.90;;;;;;4993799;28;20428;-66
2022/07/28 04:02:46;;;;;;;0.40;0.20;;;16.60;99.90;;;;;;4993996;28;20401;-66
2022/07/28 04:05:17;;;;;;;0.40;0.20;;;16.50;99.90;;;;;;5010078;28;20737;-66
2022/07/28 04:07:44;;;;;;;0.40;0.30;;;16.50;99.90;;;;;;4993652;28;20409;-65
2022/07/28 04:10:15;;;;;;;0.40;0.30;;;16.50;99.90;;;;;;4993642;28;20417;-65
2022/07/28 04:12:59;;;;;;;0.40;0.30;;;16.50;99.90;;;;;;5010292;28;20769;-66
2022/07/28 04:15:27;;;;;;;0.40;0.30;;;16.50;99.90;;;;;;4977606;28;20412;-66
2022/07/28 04:17:54;;;;;;;0.40;0.30;;;16.60;99.90;;;;;;5009886;28;20404;-66
2022/07/28 04:20:21;;;;;;;0.40;0.30;;;16.60;99.90;;;;;;4993989;28;20915;-68
2022/07/28 04:22:48;;;;;;;0.40;0.30;;;16.60;99.90;;;;;;4976361;28;20453;-67
2022/07/28 04:25:16;;;;;;;0.40;0.30;;;16.60;99.90;;;;;;5010298;28;20794;-67
2022/07/28 04:27:43;;;;;;;0.50;0.50;;;16.50;99.90;;;;;;4993169;28;20417;-67
2022/07/28 04:30:12;;;;;;;0.40;0.20;;;16.60;99.90;;;;;;4977956;28;20412;-67
2022/07/28 04:32:39;;;;;;;0.40;0.30;;;16.40;99.90;;;;;;5009991;28;20427;-67
2022/07/28 04:35:06;;;;;;;0.40;0.30;;;16.50;99.90;;;;;;4977588;28;20416;-67
2022/07/28 04:37:32;;;;;;;0.40;0.20;;;16.60;99.90;;;;;;4977388;28;20416;-66
2022/07/28 04:39:58;;;;;;;0.40;0.20;;;16.50;99.90;;;;;;4993678;28;20935;-67
2022/07/28 04:42:24;;;;;;;0.40;0.30;;;16.50;99.90;;;;;;5005211;28;20947;-67
2022/07/28 04:44:50;;;;;;;0.40;0.20;;;16.40;99.90;;;;;;4990539;28;20406;-67
2022/07/28 04:47:16;;;;;;;0.40;0.30;;;16.50;99.90;;;;;;4993579;28;20816;-67
2022/07/28 04:49:41;;;;;;;0.50;0.50;;;16.40;99.90;;;;;;4993550;28;20460;-67
2022/07/28 04:52:08;;;;;;;0.40;0.30;;;16.30;99.90;;;;;;4977367;28;20401;-68
2022/07/28 04:54:35;;;;;;;0.40;0.20;;;16.40;99.90;;;;;;4992952;28;20401;-67
2022/07/28 04:57:01;;;;;;;0.40;0.25;;;16.30;99.90;;;;;;4993833;28;20547;-68
2022/07/28 04:59:27;;;;;;;0.50;0.50;;;16.30;99.90;;;;;;4993307;28;20475;-68
2022/07/28 05:01:52;;;;;;;0.60;0.60;;;16.30;99.90;;;;;;4993545;28;20440;-68
2022/07/28 05:04:18;;;;;;;0.40;0.30;;;16.30;99.90;;;;;;4993632;28;20405;-68
2022/07/28 05:06:44;;;;;;;0.40;0.40;;;16.50;99.90;;;;;;4976992;28;20408;-68
2022/07/28 05:09:10;;;;;;;0.40;0.20;;;16.60;99.90;;;;;;4993025;28;20405;-67
2022/07/28 05:11:36;;;;;;;0.40;0.20;;;16.60;99.90;;;;;;4977251;28;20408;-68
2022/07/28 05:14:01;;;;;;;0.40;0.30;;;16.60;99.90;;;;;;4980068;28;20404;-66
2022/07/28 05:16:27;;;;;;;0.40;0.30;;;16.50;99.90;;;;;;4980910;28;20412;-67
2022/07/28 05:18:53;;;;;;;0.40;0.30;;;16.70;99.90;;;;;;4980772;28;20503;-66
2022/07/28 05:21:19;;;;;;;0.40;0.20;;;16.70;99.90;;;;;;4997286;28;20407;-66
2022/07/28 05:23:45;;;;;;;0.40;0.30;;;16.70;99.90;;;;;;4980840;28;20405;-66
2022/07/28 05:26:11;;;;;;;0.40;0.30;;;16.80;99.90;;;;;;4989233;28;20409;-66
2022/07/28 05:28:37;;;;;;;0.60;0.60;;;16.80;99.90;;;;;;4990092;28;20508;-66
2022/07/28 05:31:02;;;;;;;0.40;0.20;;;16.90;99.90;;;;;;4991925;28;20421;-67
2022/07/28 05:33:29;;;;;;;0.50;0.50;;;17.00;99.90;;;;;;4972326;28;20397;-66
2022/07/28 05:35:59;;;;;;;0.50;0.50;;;17.20;99.90;;;;;;4966858;28;20400;-66
2022/07/28 05:38:25;;;;;;;0.40;0.20;;;17.20;99.90;;;;;;5009250;28;20416;-66
2022/07/28 05:40:51;;;;;;;0.40;0.30;;;17.40;99.90;;;;;;4979683;28;20487;-67
2022/07/28 05:43:18;;;;;;;0.40;0.30;;;17.40;99.90;;;;;;4996318;28;20939;-66
2022/07/28 05:45:45;;;;;;;0.40;0.30;;;17.50;99.90;;;;;;4994743;28;20390;-67
2022/07/28 05:48:15;;;;;;;0.40;0.30;;;17.50;99.90;;;;;;4977929;28;20425;-66
2022/07/28 05:50:42;;;;;;;0.40;0.20;;;17.60;99.90;;;;;;5012827;28;20384;-67
2022/07/28 05:53:07;;;;;;;0.43;0.27;;;17.60;99.90;;;;;;4995944;28;20397;-68
2022/07/28 05:55:33;;;;;;;0.40;0.20;;;17.70;99.90;;;;;;4994893;28;20401;-67
2022/07/28 05:57:59;;;;;;;0.40;0.20;;;17.50;99.90;;;;;;4988026;28;20417;-67
2022/07/28 06:00:25;;;;;;;0.40;0.20;;;17.70;99.90;;;;;;4977146;28;20419;-67
2022/07/28 06:02:51;;;;;;;0.40;0.30;;;17.70;99.90;;;;;;5000645;28;20443;-68
2022/07/28 06:05:20;;;;;;;0.40;0.20;;;17.80;99.90;;;;;;4993121;28;20861;-68
2022/07/28 06:07:47;;;;;;;0.40;0.30;;;17.80;99.90;;;;;;4991179;28;20424;-67
2022/07/28 06:10:15;;;;;;;0.40;0.20;;;17.90;99.90;;;;;;4977524;28;20479;-67
2022/07/28 06:12:46;;;;;;;0.40;0.30;;;18.10;99.90;;;;;;5005375;28;21332;-68
2022/07/28 06:15:17;;;;;;;0.40;0.40;;;18.20;99.90;;;;;;5000389;28;20410;-67
2022/07/28 06:17:43;;;;;;;0.40;0.20;;;18.20;99.90;;;;;;5007222;28;20397;-67
2022/07/28 06:20:12;;;;;;;0.40;0.30;;;18.10;99.90;;;;;;4990143;28;20420;-68
2022/07/28 06:22:50;;;;;;;0.40;0.30;;;18.20;99.90;;;;;;5007631;28;20717;-68
2022/07/28 06:25:25;;;;;;;0.40;0.20;;;18.30;99.90;;;;;;5003034;28;20408;-67
2022/07/28 06:27:59;;;;;;;0.40;0.30;;;18.40;99.90;;;;;;4988068;28;20565;-67
2022/07/28 06:30:29;;;;;;;0.90;0.90;;;18.30;99.90;;;;;;5003681;28;20408;-67
2022/07/28 06:32:56;;;;;;;0.40;0.30;;;18.30;99.90;;;;;;4997486;28;20431;-67
2022/07/28 06:35:23;;;;;;;0.40;0.20;;;18.30;99.90;;;;;;4994154;28;20414;-67
2022/07/28 06:37:52;;;;;;;0.40;0.30;;;18.50;99.90;;;;;;4992417;28;20472;-67
2022/07/28 06:40:23;;;;;;;0.40;0.30;;;18.40;99.90;;;;;;4986275;28;20525;-67
2022/07/28 06:42:51;;;;;;;0.40;0.30;;;18.50;99.90;;;;;;4994840;28;20397;-68
2022/07/28 06:45:22;;;;;;;0.40;0.30;;;18.50;99.90;;;;;;5001626;28;20436;-68
2022/07/28 06:47:49;;;;;;;0.40;0.30;;;18.40;99.90;;;;;;4977163;28;20429;-67
2022/07/28 06:50:15;;;;;;;0.40;0.20;;;18.50;99.90;;;;;;4991938;28;20396;-67
2022/07/28 06:52:41;;;;;;;0.90;0.60;;;18.40;99.90;;;;;;4990067;28;20873;-68
2022/07/28 06:55:07;;;;;;;0.40;0.30;;;18.50;99.90;;;;;;4980684;28;21033;-67
2022/07/28 06:57:33;;;;;;;0.55;0.43;;;18.70;99.90;;;;;;4988194;28;20401;-67
2022/07/28 06:59:59;;;;;;;0.40;0.30;;;18.70;99.90;;;;;;4982296;28;20474;-67
2022/07/28 07:02:28;;;;;;;0.63;0.50;;;18.70;99.90;;;;;;4986370;28;20410;-67
2022/07/28 07:04:55;;;;;;;0.40;0.20;;;18.80;99.90;;;;;;4999093;28;20397;-68
2022/07/28 07:07:22;;;;;;;0.40;0.22;;;18.80;99.90;;;;;;4975289;28;20487;-67
2022/07/28 07:09:48;;;;;;;0.40;0.20;;;18.90;99.90;;;;;;4985768;28;20414;-67
2022/07/28 07:12:13;;;;;;;0.40;0.30;;;18.90;99.90;;;;;;4968486;28;20402;-67
2022/07/28 07:14:40;;;;;;;0.40;0.20;;;19.00;99.90;;;;;;4988494;28;20468;-67
2022/07/28 07:17:06;;;;;;;0.40;0.20;;;19.10;99.90;;;;;;4977327;28;20385;-67
2022/07/28 07:19:32;;;;;;;0.40;0.30;;;19.20;99.90;;;;;;4989322;28;20399;-68
2022/07/28 07:21:58;;;;;;;0.40;0.20;;;19.20;99.90;;;;;;4989139;28;20772;-68
2022/07/28 07:24:24;;;;;;;0.40;0.20;;;19.20;99.90;;;;;;4991096;28;20395;-67
2022/07/28 07:26:50;;;;;;;0.45;0.40;;;19.30;99.90;;;;;;4976221;28;20441;-66
2022/07/28 07:29:16;;;;;;;0.40;0.20;;;19.40;99.90;;;;;;5008032;28;20433;-67
2022/07/28 07:31:42;;;;;;;0.40;0.30;;;19.40;99.20;;;;;;5010720;28;20504;-67
2022/07/28 07:34:09;;;;;;;0.40;0.20;;;19.30;99.90;;;;;;4987983;28;20439;-67
2022/07/28 07:36:36;;;;;;;0.40;0.30;;;19.50;98.90;;;;;;4975372;28;20393;-66
2022/07/28 07:39:02;;;;;;;0.40;0.20;;;19.60;98.80;;;;;;4987912;28;20506;-66
2022/07/28 07:41:28;;;;;;;0.90;0.90;;;19.50;98.90;;;;;;4975134;28;20477;-66
2022/07/28 07:43:53;;;;;;;0.40;0.20;;;19.60;99.30;;;;;;5002826;28;20483;-67
2022/07/28 07:46:19;;;;;;;0.40;0.30;;;19.70;98.60;;;;;;4993857;28;20388;-67
2022/07/28 07:48:45;;;;;;;0.40;0.30;;;19.80;98.90;;;;;;4973213;28;20419;-66
2022/07/28 07:51:11;;;;;;;0.40;0.30;;;19.90;98.20;;;;;;4989618;28;20479;-67
2022/07/28 07:53:37;;;;;;;0.40;0.20;;;19.90;97.80;;;;;;4988967;28;20926;-67
2022/07/28 07:56:03;;;;;;;0.40;0.30;;;19.90;97.40;;;;;;4970673;28;20517;-67
2022/07/28 07:58:30;;;;;;;0.40;0.22;;;20.00;97.90;;;;;;5011911;28;20401;-67
2022/07/28 08:00:56;;;;;;;0.80;0.80;;;20.00;98.30;;;;;;4966961;28;20401;-67
2022/07/28 08:03:22;;;;;;;0.40;0.20;;;20.10;97.40;;;;;;4987917;28;20393;-66
2022/07/28 08:05:48;;;;;;;0.40;0.30;;;20.10;97.20;;;;;;4976837;28;20885;-66
2022/07/28 08:08:14;;;;;;;0.40;0.30;;;20.20;97.20;;;;;;4983597;28;20507;-67
2022/07/28 08:10:41;;;;;;;0.40;0.20;;;20.30;96.80;;;;;;4993848;28;20466;-66
2022/07/28 08:13:07;;;;;;;0.40;0.30;;;20.30;97.10;;;;;;4980992;28;20416;-67
2022/07/28 08:15:33;;;;;;;0.40;0.30;;;20.40;97.40;;;;;;5007410;28;20884;-67
2022/07/28 08:18:02;;;;;;;0.50;0.40;;;20.40;97.40;;;;;;4988636;28;20459;-67
2022/07/28 08:20:28;;;;;;;0.40;0.20;;;20.40;96.30;;;;;;4977345;28;20451;-67
2022/07/28 08:22:56;;;;;;;0.40;0.30;;;20.50;96.50;;;;;;5009377;28;20793;-67
2022/07/28 08:25:23;;;;;;;0.40;0.30;;;20.60;96.60;;;;;;5009987;28;20419;-67
2022/07/28 08:27:51;;;;;;;0.40;0.20;;;20.80;96.00;;;;;;4992581;28;20416;-66
2022/07/28 08:30:19;;;;;;;0.40;0.20;;;20.80;95.90;;;;;;4993561;28;20411;-66
2022/07/28 08:32:46;;;;;;;0.43;0.40;;;20.70;95.50;;;;;;4988392;28;20869;-67
2022/07/28 08:35:12;;;;;;;0.40;0.30;;;20.80;95.70;;;;;;4993465;28;20431;-67
2022/07/28 08:37:38;;;;;;;0.40;0.30;;;21.00;95.20;;;;;;5004342;28;20405;-67
2022/07/28 08:40:10;;;;;;;0.40;0.30;;;21.00;95.10;;;;;;4991020;28;20431;-68
2022/07/28 08:43:17;;;;;;;0.40;0.20;;;21.20;94.20;;;;;;4979764;28;20399;-67
2022/07/28 08:45:47;;;;;;;0.40;0.30;;;21.30;93.40;;;;;;5008541;28;20393;-67
2022/07/28 08:48:15;;;;;;;0.40;0.30;;;21.30;93.50;;;;;;5007854;28;20412;-67
2022/07/28 08:50:45;;;;;;;0.40;0.30;;;21.30;93.50;;;;;;5011707;28;20398;-67
2022/07/28 08:53:13;;;;;;;0.40;0.30;;;21.40;93.00;;;;;;4997252;28;20388;-67
2022/07/28 08:55:40;;;;;;;0.40;0.30;;;21.40;93.40;;;;;;4997749;28;20409;-67
2022/07/28 08:58:06;;;;;;;0.40;0.20;;;21.60;92.60;;;;;;4995774;28;20392;-66
2022/07/28 09:00:33;;;;;;;0.40;0.30;;;21.70;92.10;;;;;;4994256;28;20396;-67
2022/07/28 09:03:01;;;;;;;0.40;0.20;;;21.80;91.90;;;;;;4986837;28;20462;-68
2022/07/28 09:05:28;;;;;;;0.40;0.30;;;21.70;91.80;;;;;;5013952;28;20451;-67
2022/07/28 09:07:54;;;;;;;0.40;0.30;;;21.90;91.90;;;;;;4981212;28;20905;-67
2022/07/28 09:10:20;;;;;;;0.40;0.20;;;22.00;91.80;;;;;;4997246;28;20408;-67
2022/07/28 09:12:46;;;;;;;0.40;0.30;;;21.90;91.20;;;;;;5013798;28;20757;-67
2022/07/28 09:15:12;;;;;;;0.40;0.30;;;22.00;90.90;;;;;;4986775;28;20397;-68
2022/07/28 09:17:39;;;;;;;0.40;0.30;;;21.90;91.00;;;;;;4981105;28;20411;-68
2022/07/28 09:20:06;;;;;;;0.40;0.30;;;22.20;90.70;;;;;;4964362;28;20393;-68
2022/07/28 09:22:32;;;;;;;0.40;0.30;;;22.40;90.40;;;;;;4980607;28;20412;-68
2022/07/28 09:25:01;;;;;;;0.40;0.30;;;22.30;90.50;;;;;;4986791;28;20405;-69
2022/07/28 09:27:41;;;;;;;0.40;0.20;;;22.20;90.40;;;;;;4992103;28;20418;-68
2022/07/28 09:30:11;;;;;;;0.40;0.20;;;22.30;90.60;;;;;;5010619;28;20443;-68
2022/07/28 09:32:42;;;;;;;0.40;0.30;;;22.40;90.90;;;;;;4996523;28;20388;-68
2022/07/28 09:35:19;;;;;;;0.40;0.20;;;22.50;90.60;;;;;;5012156;28;20390;-69
2022/07/28 09:37:45;;;;;;;0.60;0.50;;;22.60;90.90;;;;;;5009885;28;20446;-68
2022/07/28 09:40:12;;;;;;;0.40;0.30;;;22.60;90.00;;;;;;4995928;28;20774;-68
2022/07/28 09:42:54;;;;;;;0.40;0.20;;;22.60;90.30;;;;;;5011730;28;20608;-70
2022/07/28 09:45:27;;;;;;;0.40;0.30;;;22.80;89.40;;;;;;4993048;28;20401;-67
2022/07/28 09:48:07;;;;;;;0.40;0.30;;;22.90;89.20;;;;;;5006782;28;20900;-68
2022/07/28 09:50:33;;;;;;;0.40;0.30;;;23.10;88.90;;;;;;5006004;28;20559;-66
2022/07/28 09:53:21;;;;;;;1.10;1.00;;;23.20;89.80;;;;;;5002187;28;20754;-67
2022/07/28 09:55:55;;;;;;;0.40;0.30;;;23.10;89.10;;;;;;4994186;28;20381;-67
2022/07/28 09:58:21;;;;;;;0.40;0.30;;;23.20;87.90;;;;;;5012348;28;20397;-67
2022/07/28 10:00:47;;;;;;;0.63;0.52;;;23.50;87.40;;;;;;5011949;28;20416;-67
2022/07/28 10:03:24;;;;;;;0.80;0.60;;;23.50;88.00;;;;;;4971960;28;20406;-67
2022/07/28 10:05:50;;;;;;;0.40;0.30;;;23.50;87.00;;;;;;5006161;28;20392;-67
2022/07/28 10:08:18;;;;;;;0.50;0.50;;;23.50;86.10;;;;;;4992921;28;20566;-68
2022/07/28 10:10:59;;;;;;;0.40;0.20;;;23.70;85.80;;;;;;4991562;28;20754;-67
2022/07/28 10:13:31;;;;;;;0.40;0.22;;;23.60;85.60;;;;;;4989071;28;20526;-67
2022/07/28 10:16:09;;;;;;;0.90;0.70;;;23.70;87.90;;;;;;5002622;28;20403;-67
2022/07/28 10:18:35;;;;;;;0.50;0.40;;;23.90;87.10;;;;;;4983409;28;20509;-68
2022/07/28 10:21:08;;;;;;;0.40;0.30;;;23.80;86.50;;;;;;4975836;28;20491;-68
2022/07/28 10:23:37;;;;;;;0.40;0.20;;;23.70;87.10;;;;;;5008849;28;20396;-68
2022/07/28 10:26:08;;;;;;;0.40;0.20;;;23.90;90.00;;;;;;5011226;28;20401;-68
2022/07/28 10:28:37;;;;;;;0.40;0.20;;;23.90;86.50;;;;;;5005382;28;20879;-68
2022/07/28 10:31:08;;;;;;;0.40;0.30;;;23.90;86.30;;;;;;5012189;28;20401;-68
2022/07/28 10:33:37;;;;;;;0.40;0.30;;;23.90;87.40;;;;;;5011997;28;20745;-67
2022/07/28 10:36:04;;;;;;;0.50;0.50;;;23.70;86.80;;;;;;5012105;28;20889;-68
2022/07/28 10:38:35;;;;;;;2.67;2.57;;;23.70;89.40;;;;;;4978318;28;20404;-68
2022/07/28 10:41:06;;;;;;;0.70;0.70;;;23.90;88.00;;;;;;4994673;28;20431;-68
2022/07/28 10:43:32;;;;;;;0.40;0.30;;;24.20;86.20;;;;;;5011946;28;20409;-67
2022/07/28 10:45:58;;;;;;;0.40;0.30;;;24.50;85.20;;;;;;4979044;28;20772;-67
2022/07/28 10:48:25;;;;;;;0.40;0.30;;;24.50;85.20;;;;;;4995439;28;20432;-67
2022/07/28 10:50:53;;;;;;;0.40;0.30;;;24.60;84.70;;;;;;4975563;28;20397;-67
2022/07/28 10:53:52;;;;;;;0.40;0.30;;;24.50;84.20;;;;;;5001841;28;20403;-67
2022/07/28 10:56:34;;;;;;;0.90;0.60;;;24.50;86.20;;;;;;4996498;28;20413;-67
2022/07/28 10:59:37;;;;;;;0.40;0.30;;;24.70;84.60;;;;;;5009268;28;20401;-67
2022/07/28 11:02:02;;;;;;;0.40;0.30;;;25.00;83.60;;;;;;5000770;28;20538;-68
2022/07/28 11:04:46;;;;;;;0.40;0.30;;;25.00;82.60;;;;;;4985469;28;20432;-68
2022/07/28 11:07:15;;;;;;;0.40;0.30;;;25.10;82.90;;;;;;4999571;28;20408;-68
2022/07/28 11:09:42;;;;;;;0.40;0.20;;;25.10;82.10;;;;;;4991403;28;20440;-67
2022/07/28 11:12:13;;;;;;;0.40;0.30;;;25.40;82.10;;;;;;4993334;28;20487;-68
2022/07/28 11:14:43;;;;;;;0.40;0.20;;;25.70;81.10;;;;;;4990293;28;20390;-68
2022/07/28 11:17:10;;;;;;;0.50;0.50;;;25.50;80.70;;;;;;4973829;28;20498;-67
2022/07/28 11:19:45;;;;;;;0.40;0.30;;;25.60;79.60;;;;;;4991896;28;20545;-67
2022/07/28 11:22:13;;;;;;;0.40;0.20;;;25.70;80.20;;;;;;4995058;28;20413;-69
2022/07/28 11:25:00;;;;;;;0.60;0.60;;;25.80;80.10;;;;;;5003476;28;20893;-69
2022/07/28 11:27:50;;;;;;;0.40;0.30;;;25.80;79.60;;;;;;5009346;28;20427;-69
2022/07/28 11:30:30;;;;;;;0.40;0.20;;;26.00;79.50;;;;;;5002399;28;20904;-68
2022/07/28 11:33:03;;;;;;;0.40;0.30;;;26.40;77.60;;;;;;5014937;28;20866;-69
2022/07/28 11:35:30;;;;;;;0.40;0.30;;;26.40;75.60;;;;;;5011091;28;20774;-69
2022/07/28 11:38:03;;;;;;;0.40;0.30;;;26.60;75.10;;;;;;4969719;28;20408;-69
2022/07/28 11:40:31;;;;;;;0.40;0.20;;;26.70;74.40;;;;;;4996680;28;20434;-69
2022/07/28 11:43:21;;;;;;;0.60;0.50;;;27.00;73.80;;;;;;4992513;28;20401;-69
2022/07/28 11:46:07;;;;;;;0.40;0.20;;;27.60;72.50;;;;;;5002839;28;20394;-69
2022/07/28 11:48:34;;;;;;;0.40;0.20;;;28.40;69.30;;;;;;5010629;28;20423;-69
2022/07/28 11:51:03;;;;;;;0.40;0.20;;;29.10;66.30;;;;;;4992902;28;20456;-69
2022/07/28 11:53:41;;;;;;;0.60;0.60;;;29.50;63.50;;;;;;5007314;28;20400;-69
2022/07/28 11:56:15;;;;;;;0.40;0.40;;;29.00;64.90;;;;;;4991001;28;20478;-68
2022/07/28 11:58:42;;;;;;;0.40;0.20;;;29.10;65.60;;;;;;4988449;28;20418;-69
2022/07/28 12:01:15;;;;;;;0.40;0.30;;;29.30;63.50;;;;;;4973624;28;20472;-69
2022/07/28 12:03:41;;;;;;;0.40;0.30;;;29.00;62.90;;;;;;5002767;28;20496;-68
2022/07/28 12:06:08;;;;;;;0.40;0.20;;;29.60;61.50;;;;;;4994249;28;20401;-69
2022/07/28 12:08:58;;;;;;;0.40;0.20;;;28.80;60.00;;;;;;4970318;28;21082;-68
2022/07/28 12:11:25;;;;;;;0.40;0.32;;;29.50;62.60;;;;;;5002222;28;20781;-69
2022/07/28 12:14:05;;;;;;;0.90;0.50;;;29.60;60.80;;;;;;5007726;28;20880;-68
2022/07/28 12:16:32;;;;;;;0.40;0.20;;;30.60;58.90;;;;;;5002546;28;20397;-68
2022/07/28 12:19:00;;;;;;;0.40;0.20;;;30.40;61.80;;;;;;4984633;28;20411;-69
2022/07/28 12:21:40;;;;;;;0.40;0.20;;;30.80;57.40;;;;;;4993612;28;20393;-69
2022/07/28 12:24:08;;;;;;;0.40;0.20;;;30.30;58.40;;;;;;4987837;28;20408;-68
2022/07/28 12:26:39;;;;;;;0.40;0.20;;;31.30;58.50;;;;;;4999959;28;20483;-68
2022/07/28 12:29:06;;;;;;;0.40;0.20;;;30.40;57.30;;;;;;5007881;28;20412;-69
2022/07/28 12:31:32;;;;;;;0.40;0.20;;;30.70;57.30;;;;;;4991024;28;20487;-71
2022/07/28 12:34:00;;;;;;;0.40;0.20;;;30.70;57.10;;;;;;5009371;28;20722;-69
2022/07/28 12:36:27;;;;;;;0.40;0.20;;;30.90;56.90;;;;;;4984254;28;20839;-69
2022/07/28 12:38:53;;;;;;;0.40;0.20;;;30.70;58.50;;;;;;4962798;28;20420;-69
2022/07/28 12:41:21;;;;;;;0.40;0.20;;;30.40;58.10;;;;;;4988578;28;20413;-69
2022/07/28 12:43:57;;;;;;;0.40;0.20;;;30.90;57.30;;;;;;5007779;28;20930;-70
2022/07/28 12:46:31;;;;;;;0.60;0.60;;;30.80;56.00;;;;;;5004333;28;20416;-70
2022/07/28 12:49:38;;;;;;;0.40;0.30;;;31.00;56.10;;;;;;5009565;28;20408;-70
2022/07/28 12:52:23;;;;;;;0.40;0.20;;;30.80;56.30;;;;;;5003155;28;20757;-70
2022/07/28 12:54:56;;;;;;;0.40;0.20;;;31.20;56.60;;;;;;5008739;28;20904;-70
2022/07/28 12:57:46;;;;;;;0.40;0.20;;;30.50;55.60;;;;;;5008693;28;20455;-70
2022/07/28 13:00:18;;;;;;;0.40;0.20;;;31.10;56.40;;;;;;5006658;28;20414;-69
2022/07/28 13:02:59;;;;;;;0.40;0.30;;;30.90;58.20;;;;;;5007003;28;20484;-70
2022/07/28 13:06:03;;;;;;;0.70;0.50;;;30.70;58.70;;;;;;5004865;28;20413;-70
2022/07/28 13:08:45;;;;;;;0.40;0.20;;;30.40;57.30;;;;;;5005309;28;20424;-69
2022/07/28 13:11:17;;;;;;;0.90;0.60;;;30.60;58.20;;;;;;4996708;28;21401;-69
2022/07/28 13:13:55;;;;;;;0.40;0.20;;;30.60;58.90;;;;;;5004477;28;20475;-70
2022/07/28 13:16:27;;;;;;;0.40;0.20;;;30.20;58.80;;;;;;5009260;28;20397;-70
2022/07/28 13:18:56;;;;;;;0.40;0.20;;;30.10;58.40;;;;;;4989900;28;20490;-71
2022/07/28 13:21:42;;;;;;;0.40;0.20;;;30.30;56.40;;;;;;4987580;28;20401;-70
2022/07/28 13:24:15;;;;;;;0.40;0.20;;;30.40;56.70;;;;;;5008401;28;20400;-70
2022/07/28 13:26:44;;;;;;;0.40;0.20;;;30.40;58.10;;;;;;4989954;28;20401;-70
2022/07/28 13:29:11;;;;;;;0.40;0.20;;;30.70;59.40;;;;;;5004372;28;20444;-67
2022/07/28 13:31:38;;;;;;;0.40;0.20;;;30.90;57.00;;;;;;4968591;28;20508;-69
2022/07/28 13:34:06;;;;;;;0.40;0.20;;;31.10;56.80;;;;;;4992570;28;20397;-68
2022/07/28 13:36:38;;;;;;;0.40;0.30;;;30.30;56.40;;;;;;5007561;28;21556;-67
2022/07/28 13:39:10;;;;;;;0.40;0.20;;;30.50;57.10;;;;;;5007717;28;20905;-70